Time;durP1;ratioP1;P1;durP2;ratioP2;P2;SDS_P1;SDS_P2;PMS_P1;PMS_P2;Temp;Humidity;BMP_temperature;BMP_pressure;BME280_temperature;BME280_humidity;BME280_pressure;Samples;Min_cycle;Max_cycle;Signal;HPM_P1;HPM_P2
2023/02/14 00:01:27;;;;;;;20.02;11.10;;;6.30;99.90;;;;;;4928434;29;20396;-81
2023/02/14 00:03:59;;;;;;;20.92;12.10;;;5.90;99.90;;;;;;4929500;29;20394;-79
2023/02/14 00:06:27;;;;;;;14.85;9.65;;;6.20;99.90;;;;;;4921909;29;20225;-81
2023/02/14 00:08:55;;;;;;;16.55;10.93;;;;;;;;;;4931727;29;20204;-80
2023/02/14 00:11:22;;;;;;;18.42;11.90;;;6.40;99.90;;;;;;4929412;29;20432;-80
2023/02/14 00:16:35;;;;;;;15.05;10.52;;;;;;;;;;4926387;29;20212;-81
2023/02/14 00:19:03;;;;;;;20.30;9.30;;;;;;;;;;4929549;29;20233;-80
2023/02/14 00:21:34;;;;;;;20.23;10.45;;;5.90;99.90;;;;;;4929282;29;20264;-81
2023/02/14 00:24:07;;;;;;;16.15;11.00;;;5.90;99.90;;;;;;4913637;29;20414;-82
2023/02/14 00:26:37;;;;;;;17.58;11.13;;;;;;;;;;4922565;29;20433;-79
2023/02/14 00:29:12;;;;;;;17.45;11.18;;;5.90;99.90;;;;;;4919988;29;20212;-79
2023/02/14 00:31:40;;;;;;;12.77;9.50;;;6.20;99.90;;;;;;4921937;29;20256;-80
2023/02/14 00:34:08;;;;;;;19.42;9.90;;;5.70;99.90;;;;;;4919533;29;20231;-80
2023/02/14 00:36:36;;;;;;;17.13;11.05;;;;;;;;;;4924143;29;20264;-80
2023/02/14 00:39:05;;;;;;;15.82;10.13;;;6.40;99.90;;;;;;4925046;29;20500;-80
2023/02/14 00:41:32;;;;;;;13.40;9.10;;;6.30;99.90;;;;;;4927285;29;20208;-78
2023/02/14 00:43:59;;;;;;;16.13;10.63;;;5.80;99.90;;;;;;4923587;29;20208;-79
2023/02/14 00:46:26;;;;;;;14.65;10.40;;;6.00;99.90;;;;;;4925612;29;20560;-78
2023/02/14 00:48:53;;;;;;;18.52;11.02;;;5.70;99.90;;;;;;4918247;29;20208;-82
2023/02/14 00:51:21;;;;;;;14.65;10.60;;;6.00;99.90;;;;;;4911541;29;20229;-80
2023/02/14 00:53:49;;;;;;;17.30;10.15;;;5.90;99.90;;;;;;4927499;29;20212;-80
2023/02/14 00:56:17;;;;;;;15.27;9.20;;;5.90;99.90;;;;;;4939572;29;20207;-79
2023/02/14 00:58:44;;;;;;;19.17;11.50;;;5.70;99.90;;;;;;4931417;29;20448;-81
2023/02/14 01:01:12;;;;;;;14.20;10.32;;;5.90;99.90;;;;;;4924762;29;20204;-81
2023/02/14 01:03:39;;;;;;;14.32;10.32;;;5.60;99.90;;;;;;4920292;29;20256;-80
2023/02/14 01:06:09;;;;;;;17.70;10.82;;;5.90;99.90;;;;;;4926689;29;20200;-81
2023/02/14 01:08:38;;;;;;;17.10;10.68;;;6.10;99.90;;;;;;4922339;29;20453;-79
2023/02/14 01:11:24;;;;;;;16.00;10.60;;;6.10;99.90;;;;;;4923559;29;20293;-79
2023/02/14 01:13:55;;;;;;;13.88;9.32;;;5.80;99.90;;;;;;4920911;29;20239;-79
2023/02/14 01:16:23;;;;;;;15.68;11.70;;;5.90;99.90;;;;;;4919246;29;20431;-79
2023/02/14 01:18:51;;;;;;;19.08;12.00;;;6.00;99.90;;;;;;4932157;29;20220;-81
2023/02/14 01:21:35;;;;;;;20.80;10.95;;;5.80;99.90;;;;;;4918629;29;20501;-79
2023/02/14 01:24:06;;;;;;;12.93;9.77;;;6.00;99.90;;;;;;4933604;29;20235;-79
2023/02/14 01:26:34;;;;;;;17.48;11.70;;;6.20;99.90;;;;;;4931437;29;20216;-79
2023/02/14 01:29:03;;;;;;;11.68;8.95;;;6.10;99.90;;;;;;4921066;29;20430;-79
2023/02/14 01:31:32;;;;;;;19.08;9.60;;;5.90;99.90;;;;;;4914153;29;20566;-80
2023/02/14 01:33:59;;;;;;;13.73;9.45;;;5.80;99.90;;;;;;4918896;29;20231;-83
2023/02/14 01:36:30;;;;;;;17.65;10.73;;;6.00;99.90;;;;;;4926029;29;20224;-79
2023/02/14 01:39:01;;;;;;;14.45;8.55;;;5.90;99.90;;;;;;4918704;29;20212;-79
2023/02/14 01:41:30;;;;;;;14.18;8.90;;;5.90;99.90;;;;;;4918172;29;20201;-80
2023/02/14 01:44:00;;;;;;;12.27;8.63;;;5.80;99.90;;;;;;4924923;29;20392;-80
2023/02/14 01:46:33;;;;;;;13.63;10.65;;;5.90;99.90;;;;;;4926689;29;20212;-81
2023/02/14 01:49:04;;;;;;;14.60;10.73;;;5.90;99.90;;;;;;4925660;29;20207;-80
2023/02/14 01:51:32;;;;;;;14.30;10.00;;;5.90;99.90;;;;;;4918702;29;20244;-80
2023/02/14 01:54:00;;;;;;;14.70;10.38;;;6.00;99.90;;;;;;4926483;29;20268;-82
2023/02/14 01:56:35;;;;;;;13.70;9.70;;;5.70;99.90;;;;;;4917369;29;20237;-78
2023/02/14 01:59:06;;;;;;;16.20;10.98;;;5.60;99.90;;;;;;4922430;29;20251;-80
2023/02/14 02:01:33;;;;;;;13.13;9.40;;;6.20;99.90;;;;;;4924960;29;20413;-80
2023/02/14 02:04:13;;;;;;;15.93;10.43;;;6.00;99.90;;;;;;4925930;29;20211;-78
2023/02/14 02:06:44;;;;;;;15.52;11.20;;;5.90;99.90;;;;;;4925706;29;20196;-81
2023/02/14 02:09:18;;;;;;;15.93;10.18;;;6.20;99.90;;;;;;4925670;29;20259;-80
2023/02/14 02:11:44;;;;;;;13.82;8.52;;;5.80;99.90;;;;;;4919345;29;20497;-79
2023/02/14 02:14:14;;;;;;;13.65;9.13;;;6.10;99.90;;;;;;4917708;29;20229;-79
2023/02/14 02:17:03;;;;;;;16.85;11.07;;;5.90;99.90;;;;;;4925915;29;20256;-79
2023/02/14 02:19:52;;;;;;;14.77;8.93;;;5.90;99.90;;;;;;4918402;29;20257;-81
2023/02/14 02:22:40;;;;;;;18.40;9.85;;;5.80;99.90;;;;;;4925447;29;20212;-81
2023/02/14 02:25:28;;;;;;;14.95;10.73;;;5.70;99.90;;;;;;4925548;29;20216;-80
2023/02/14 02:28:13;;;;;;;12.25;9.52;;;5.70;99.90;;;;;;4928213;29;20217;-82
2023/02/14 02:31:16;;;;;;;17.88;9.85;;;5.40;99.90;;;;;;4913434;29;20204;-79
2023/02/14 02:34:05;;;;;;;12.98;9.63;;;5.70;99.90;;;;;;4925517;29;20200;-80
2023/02/14 02:36:38;;;;;;;13.27;8.35;;;5.60;99.90;;;;;;4923027;29;20433;-78
2023/02/14 02:39:20;;;;;;;13.18;9.30;;;5.70;99.90;;;;;;4921431;29;20224;-80
2023/02/14 02:42:25;;;;;;;11.68;9.75;;;5.90;99.90;;;;;;4920849;29;20222;-78
2023/02/14 02:45:29;;;;;;;12.20;9.02;;;5.80;99.90;;;;;;4883467;29;20210;-80
2023/02/14 02:48:03;;;;;;;14.88;8.85;;;5.80;99.90;;;;;;4894432;29;20201;-81
2023/02/14 02:53:45;;;;;;;14.57;9.57;;;5.80;99.90;;;;;;4929151;29;20235;-81
2023/02/14 02:56:45;;;;;;;12.05;9.15;;;5.80;99.90;;;;;;4929038;29;20256;-78
2023/02/14 02:59:41;;;;;;;15.48;9.35;;;5.70;99.90;;;;;;4928845;29;20204;-79
2023/02/14 03:02:17;;;;;;;14.52;9.75;;;5.40;99.90;;;;;;4927268;29;20204;-80
2023/02/14 03:04:53;;;;;;;13.85;9.57;;;6.10;99.90;;;;;;4928990;29;20203;-80
2023/02/14 03:07:35;;;;;;;14.40;9.75;;;5.60;99.90;;;;;;4923847;29;20197;-81
2023/02/14 03:10:15;;;;;;;14.15;9.75;;;6.30;99.90;;;;;;4928556;29;20432;-80
2023/02/14 03:12:43;;;;;;;14.65;9.55;;;;;;;;;;4925005;29;20501;-81
2023/02/14 03:15:18;;;;;;;13.38;10.45;;;5.60;99.90;;;;;;4921104;29;20272;-79
2023/02/14 03:21:02;;;;;;;14.73;9.73;;;5.90;99.90;;;;;;4926647;29;20204;-79
2023/02/14 03:23:37;;;;;;;15.02;9.20;;;5.80;99.90;;;;;;4920654;29;20251;-80
2023/02/14 03:26:16;;;;;;;15.23;9.90;;;5.70;99.90;;;;;;4928812;29;20210;-80
2023/02/14 03:29:00;;;;;;;13.02;9.20;;;5.70;99.90;;;;;;4921706;29;20224;-80
2023/02/14 03:31:38;;;;;;;16.63;11.43;;;5.60;99.90;;;;;;4927405;29;20216;-79
2023/02/14 03:34:18;;;;;;;14.80;10.10;;;5.80;99.90;;;;;;4926643;29;20224;-81
2023/02/14 03:37:09;;;;;;;15.50;10.05;;;5.60;99.90;;;;;;4924674;29;20229;-80
2023/02/14 03:40:00;;;;;;;20.33;10.00;;;5.80;99.90;;;;;;4934785;29;20216;-78
2023/02/14 03:42:33;;;;;;;12.90;9.40;;;5.40;99.90;;;;;;4932470;29;20263;-79
2023/02/14 03:45:04;;;;;;;13.57;10.07;;;5.70;99.90;;;;;;4941342;29;20207;-77
2023/02/14 03:47:34;;;;;;;12.98;9.48;;;6.00;99.90;;;;;;4926668;29;20208;-78
2023/02/14 03:50:12;;;;;;;14.70;10.65;;;5.80;99.90;;;;;;4920499;29;20197;-81
2023/02/14 03:52:40;;;;;;;15.15;10.02;;;5.70;99.90;;;;;;4922244;29;20226;-80
2023/02/14 03:55:15;;;;;;;15.40;9.63;;;4.90;99.90;;;;;;4928013;29;20261;-79
2023/02/14 03:58:12;;;;;;;13.60;9.82;;;5.90;99.90;;;;;;4928024;29;20429;-78
2023/02/14 04:00:42;;;;;;;14.80;11.57;;;6.00;99.90;;;;;;4916286;29;20505;-81
2023/02/14 04:03:13;;;;;;;14.20;11.38;;;5.60;99.90;;;;;;4928073;29;20288;-79
2023/02/14 04:05:42;;;;;;;17.23;11.88;;;5.70;99.90;;;;;;4919291;29;20434;-80
2023/02/14 04:08:11;;;;;;;16.92;11.55;;;5.50;99.90;;;;;;4920050;29;20414;-80
2023/02/14 04:10:39;;;;;;;15.38;10.23;;;5.60;99.90;;;;;;4927685;29;20445;-80
2023/02/14 04:13:05;;;;;;;17.90;11.05;;;5.50;99.90;;;;;;4925232;29;20532;-78
2023/02/14 04:15:32;;;;;;;14.02;9.82;;;5.90;99.90;;;;;;4920701;29;20228;-80
2023/02/14 04:20:46;;;;;;;17.63;9.10;;;;;;;;;;4912690;29;20200;-78
2023/02/14 04:23:13;;;;;;;15.35;10.40;;;;;;;;;;4924649;29;20219;-80
2023/02/14 04:25:41;;;;;;;15.07;10.75;;;5.60;99.90;;;;;;4919913;29;20200;-79
2023/02/14 04:28:09;;;;;;;15.30;9.43;;;;;;;;;;4927585;29;20511;-80
2023/02/14 04:30:36;;;;;;;12.50;9.45;;;;;;;;;;4925743;29;20212;-80
2023/02/14 04:33:04;;;;;;;15.75;11.38;;;5.50;99.90;;;;;;4919174;29;20213;-81
2023/02/14 04:35:30;;;;;;;11.77;10.38;;;5.50;99.90;;;;;;4917126;29;20255;-78
2023/02/14 04:37:57;;;;;;;13.63;10.30;;;8.30;99.90;;;;;;4927002;29;20228;-79
2023/02/14 04:40:24;;;;;;;11.55;8.57;;;5.70;99.90;;;;;;4919153;29;20212;-81
2023/02/14 04:42:52;;;;;;;12.73;8.38;;;5.40;99.90;;;;;;4920514;29;20232;-80
2023/02/14 04:45:19;;;;;;;12.98;9.70;;;5.60;99.90;;;;;;4927596;29;20498;-81
2023/02/14 04:47:45;;;;;;;12.27;10.25;;;6.10;99.90;;;;;;4921292;29;20209;-79
2023/02/14 04:50:13;;;;;;;13.40;9.50;;;5.40;99.90;;;;;;4923357;29;20519;-79
2023/02/14 04:52:40;;;;;;;15.65;10.95;;;5.50;99.90;;;;;;4921106;29;20217;-80
2023/02/14 04:55:08;;;;;;;11.18;8.77;;;5.40;99.90;;;;;;4921636;29;20232;-80
2023/02/14 04:57:36;;;;;;;17.25;10.63;;;;;;;;;;4927018;29;20220;-79
2023/02/14 05:00:04;;;;;;;13.27;9.55;;;5.70;99.90;;;;;;4924510;29;20224;-79
2023/02/14 05:02:31;;;;;;;14.98;9.77;;;;;;;;;;4927586;29;20208;-79
2023/02/14 05:04:59;;;;;;;26.10;11.52;;;;;;;;;;4924968;29;20212;-79
2023/02/14 05:07:25;;;;;;;14.65;9.15;;;6.10;99.90;;;;;;4918936;29;20216;-79
2023/02/14 05:09:52;;;;;;;12.23;9.35;;;5.50;99.90;;;;;;4922230;29;20425;-80
2023/02/14 05:12:22;;;;;;;15.13;11.15;;;6.10;99.90;;;;;;4923873;29;20223;-80
2023/02/14 05:14:49;;;;;;;14.85;9.75;;;5.50;99.90;;;;;;4926787;29;20264;-80
2023/02/14 05:17:16;;;;;;;17.73;11.90;;;;;;;;;;4918598;29;20209;-79
2023/02/14 05:19:43;;;;;;;15.48;11.25;;;;;;;;;;4923533;29;20201;-79
2023/02/14 05:22:10;;;;;;;13.60;9.38;;;5.60;99.90;;;;;;4914358;29;20241;-79
2023/02/14 05:24:38;;;;;;;14.82;10.23;;;5.00;99.90;;;;;;4922704;29;20499;-81
2023/02/14 05:27:05;;;;;;;17.20;11.88;;;7.00;99.90;;;;;;4928774;29;20204;-80
2023/02/14 05:29:32;;;;;;;18.75;12.15;;;5.90;99.90;;;;;;4925258;29;20208;-78
2023/02/14 05:31:58;;;;;;;19.48;11.50;;;5.80;99.90;;;;;;4922915;29;20544;-79
2023/02/14 05:34:26;;;;;;;15.48;10.77;;;6.10;99.90;;;;;;4922015;29;20271;-79
2023/02/14 05:36:53;;;;;;;14.48;11.20;;;5.80;99.90;;;;;;4919844;29;20200;-80
2023/02/14 05:39:21;;;;;;;17.35;11.27;;;5.80;99.90;;;;;;4918414;29;20213;-80
2023/02/14 05:41:47;;;;;;;14.95;10.25;;;5.40;99.90;;;;;;4926577;29;20200;-82
2023/02/14 05:44:15;;;;;;;16.92;11.60;;;5.70;99.90;;;;;;4927085;29;20236;-80
2023/02/14 05:46:42;;;;;;;17.88;12.18;;;5.70;99.90;;;;;;4924353;29;20206;-80
2023/02/14 05:49:09;;;;;;;22.13;13.00;;;8.20;99.90;;;;;;4920609;29;20248;-78
2023/02/14 05:51:36;;;;;;;25.25;12.20;;;5.70;99.90;;;;;;4923744;29;20269;-78
2023/02/14 05:54:03;;;;;;;19.33;12.75;;;5.80;99.90;;;;;;4921033;29;20255;-79
2023/02/14 05:56:30;;;;;;;21.58;12.82;;;5.70;99.90;;;;;;4938369;29;20220;-79
2023/02/14 05:58:57;;;;;;;19.85;12.30;;;5.50;99.90;;;;;;4931046;29;20500;-81
2023/02/14 06:01:24;;;;;;;19.50;14.93;;;6.50;99.90;;;;;;4926035;29;20200;-80
2023/02/14 06:03:51;;;;;;;17.45;12.80;;;5.60;99.90;;;;;;4926000;29;20421;-80
2023/02/14 06:06:18;;;;;;;14.95;11.68;;;7.50;99.90;;;;;;4918368;29;20430;-80
2023/02/14 06:08:45;;;;;;;20.58;12.43;;;7.80;99.90;;;;;;4923155;29;20303;-80
2023/02/14 06:11:12;;;;;;;16.33;10.82;;;5.70;99.90;;;;;;4917709;29;20375;-79
2023/02/14 06:13:40;;;;;;;18.88;13.55;;;7.00;99.90;;;;;;4923731;29;20220;-80
2023/02/14 06:16:07;;;;;;;18.08;12.77;;;6.80;99.90;;;;;;4917864;29;20235;-80
2023/02/14 06:18:34;;;;;;;23.55;12.85;;;5.80;99.90;;;;;;4917758;29;20212;-81
2023/02/14 06:21:01;;;;;;;15.02;10.73;;;7.00;99.90;;;;;;4924009;29;20207;-80
2023/02/14 06:23:28;;;;;;;15.85;10.70;;;5.40;99.90;;;;;;4913355;29;20204;-80
2023/02/14 06:25:55;;;;;;;17.92;11.52;;;7.40;99.90;;;;;;4916834;29;20208;-82
2023/02/14 06:28:23;;;;;;;17.33;11.52;;;5.90;99.90;;;;;;4926657;29;20200;-79
2023/02/14 06:30:50;;;;;;;16.33;11.55;;;5.50;99.90;;;;;;4928976;29;20204;-80
2023/02/14 06:33:17;;;;;;;15.13;10.30;;;5.40;99.90;;;;;;4925684;29;20208;-78
2023/02/14 06:35:44;;;;;;;15.98;11.48;;;5.40;99.90;;;;;;4935900;29;20299;-79
2023/02/14 06:38:11;;;;;;;17.60;11.15;;;7.10;99.90;;;;;;4937670;29;20402;-78
2023/02/14 06:40:38;;;;;;;14.60;9.88;;;6.80;99.90;;;;;;4923762;29;20205;-79
2023/02/14 06:43:05;;;;;;;17.80;11.25;;;5.50;99.90;;;;;;4937826;29;20200;-79
2023/02/14 06:45:31;;;;;;;16.35;11.48;;;5.40;99.90;;;;;;4937134;29;20203;-79
2023/02/14 06:47:59;;;;;;;16.50;10.57;;;6.50;99.90;;;;;;4931902;29;20224;-79
2023/02/14 06:50:26;;;;;;;16.38;11.35;;;5.40;99.90;;;;;;4930420;29;20196;-80
2023/02/14 06:52:53;;;;;;;18.33;10.88;;;5.50;99.90;;;;;;4932846;29;20193;-79
2023/02/14 06:55:20;;;;;;;18.90;11.77;;;5.50;99.90;;;;;;4925138;29;20240;-80
2023/02/14 06:57:46;;;;;;;16.55;11.85;;;6.50;99.90;;;;;;4935293;29;20181;-80
2023/02/14 07:00:14;;;;;;;12.30;8.70;;;5.70;99.90;;;;;;4938636;29;20272;-80
2023/02/14 07:02:41;;;;;;;17.48;10.68;;;5.70;99.90;;;;;;4926581;29;20208;-79
2023/02/14 07:05:08;;;;;;;16.73;10.40;;;7.20;99.90;;;;;;4933822;29;20291;-80
2023/02/14 07:07:35;;;;;;;18.33;10.43;;;5.60;99.90;;;;;;4930443;29;20248;-79
2023/02/14 07:10:03;;;;;;;16.30;12.80;;;5.50;99.90;;;;;;4921711;29;20245;-79
2023/02/14 07:12:30;;;;;;;23.23;12.95;;;5.70;99.90;;;;;;4922040;29;20260;-82
2023/02/14 07:14:57;;;;;;;17.00;13.77;;;5.70;99.90;;;;;;4923585;29;20244;-81
2023/02/14 07:17:24;;;;;;;19.05;12.77;;;5.70;99.90;;;;;;4926482;29;20408;-79
2023/02/14 07:19:51;;;;;;;20.40;14.18;;;5.60;99.90;;;;;;4914706;29;20439;-80
2023/02/14 07:22:18;;;;;;;22.45;14.95;;;7.50;99.90;;;;;;4917481;29;20516;-79
2023/02/14 07:24:45;;;;;;;17.42;11.10;;;5.80;99.90;;;;;;4919600;29;20216;-79
2023/02/14 07:27:12;;;;;;;18.38;11.80;;;6.30;99.90;;;;;;4927620;29;20508;-81
2023/02/14 07:29:39;;;;;;;13.80;10.43;;;6.00;99.90;;;;;;4923411;29;20233;-79
2023/02/14 07:32:06;;;;;;;14.00;10.63;;;7.40;99.90;;;;;;4929174;29;20227;-81
2023/02/14 07:34:33;;;;;;;16.20;11.80;;;5.90;99.90;;;;;;4928661;29;20267;-79
2023/02/14 07:37:00;;;;;;;18.35;11.75;;;6.40;99.90;;;;;;4915863;29;20274;-80
2023/02/14 07:39:27;;;;;;;24.35;12.52;;;5.70;99.90;;;;;;4925735;29;20268;-79
2023/02/14 07:41:55;;;;;;;15.48;11.70;;;5.80;99.90;;;;;;4920649;29;20263;-81
2023/02/14 07:44:21;;;;;;;24.10;12.55;;;7.30;99.90;;;;;;4922863;29;20212;-81
2023/02/14 07:46:49;;;;;;;18.10;12.90;;;6.60;99.90;;;;;;4925762;29;20212;-82
2023/02/14 07:49:15;;;;;;;19.58;12.07;;;6.50;99.90;;;;;;4922141;29;20248;-82
2023/02/14 07:51:42;;;;;;;20.67;12.60;;;6.60;99.90;;;;;;4927731;29;20219;-80
2023/02/14 07:54:09;;;;;;;17.85;11.32;;;7.10;99.90;;;;;;4928846;29;20445;-80
2023/02/14 07:56:36;;;;;;;15.95;11.63;;;6.40;99.90;;;;;;4927209;29;20480;-80
2023/02/14 07:59:03;;;;;;;17.83;10.73;;;6.60;99.90;;;;;;4918966;29;20508;-80
2023/02/14 08:01:30;;;;;;;16.95;11.43;;;8.20;99.90;;;;;;4927084;29;20425;-80
2023/02/14 08:03:57;;;;;;;16.45;11.55;;;6.40;99.90;;;;;;4928335;29;20575;-80
2023/02/14 08:06:26;;;;;;;16.83;11.60;;;6.30;99.90;;;;;;4913402;29;20469;-79
2023/02/14 08:08:53;;;;;;;20.35;12.50;;;6.20;99.90;;;;;;4925138;29;20208;-80
2023/02/14 08:14:07;;;;;;;20.30;12.05;;;7.10;99.90;;;;;;4924406;29;20251;-80
2023/02/14 08:16:36;;;;;;;15.50;10.85;;;6.40;99.90;;;;;;4928528;29;20244;-80
2023/02/14 08:19:04;;;;;;;18.20;11.82;;;6.40;99.90;;;;;;4920359;29;20354;-79
2023/02/14 08:21:31;;;;;;;18.15;10.45;;;6.30;99.90;;;;;;4927087;29;20211;-80
2023/02/14 08:23:59;;;;;;;15.27;10.70;;;7.70;99.90;;;;;;4918648;29;20209;-79
2023/02/14 08:26:26;;;;;;;14.20;9.98;;;7.00;99.90;;;;;;4927953;29;20212;-80
2023/02/14 08:28:53;;;;;;;16.45;11.20;;;6.60;99.90;;;;;;4919879;29;20204;-81
2023/02/14 08:31:26;;;;;;;19.73;12.05;;;6.80;99.90;;;;;;4927812;29;20272;-81
2023/02/14 08:34:01;;;;;;;14.93;10.48;;;6.70;99.90;;;;;;4921038;29;20259;-81
2023/02/14 08:36:28;;;;;;;20.25;12.77;;;6.80;99.90;;;;;;4919514;29;20275;-81
2023/02/14 08:38:56;;;;;;;12.32;9.02;;;7.30;99.90;;;;;;4919765;29;20236;-79
2023/02/14 08:41:23;;;;;;;19.25;11.40;;;6.90;99.90;;;;;;4914439;29;20200;-80
2023/02/14 08:43:50;;;;;;;16.35;10.93;;;6.90;99.90;;;;;;4914202;29;20512;-79
2023/02/14 08:46:17;;;;;;;14.35;8.93;;;6.90;99.90;;;;;;4928628;29;20283;-80
2023/02/14 08:48:45;;;;;;;19.33;9.93;;;6.80;99.90;;;;;;4921501;29;20200;-84
2023/02/14 08:51:13;;;;;;;14.57;10.13;;;7.20;99.90;;;;;;4922233;29;20209;-80
2023/02/14 08:53:41;;;;;;;19.10;11.55;;;6.70;99.90;;;;;;4917468;29;20220;-82
2023/02/14 08:56:10;;;;;;;12.88;10.05;;;8.30;99.90;;;;;;4927897;29;20228;-79
2023/02/14 08:58:38;;;;;;;20.90;11.65;;;6.80;99.90;;;;;;4927615;29;20224;-80
2023/02/14 09:01:15;;;;;;;12.68;9.07;;;6.90;99.90;;;;;;4916670;29;20212;-80
2023/02/14 09:03:43;;;;;;;17.77;9.25;;;;;;;;;;4915328;29;20205;-80
2023/02/14 09:06:15;;;;;;;18.40;10.25;;;6.90;99.90;;;;;;4927293;29;20208;-80
2023/02/14 09:08:44;;;;;;;18.15;10.43;;;6.90;99.90;;;;;;4923572;29;20215;-81
2023/02/14 09:11:23;;;;;;;14.10;9.13;;;8.40;99.90;;;;;;4922675;29;20260;-79
2023/02/14 09:13:52;;;;;;;10.82;9.57;;;7.10;99.90;;;;;;4926679;29;20261;-81
2023/02/14 09:16:21;;;;;;;12.32;9.38;;;7.00;99.90;;;;;;4927470;29;20232;-81
2023/02/14 09:18:49;;;;;;;13.73;9.52;;;8.40;99.90;;;;;;4932445;29;20210;-79
2023/02/14 09:21:20;;;;;;;14.13;9.32;;;7.10;99.90;;;;;;4934387;29;20204;-81
2023/02/14 09:23:48;;;;;;;9.80;7.28;;;7.00;99.90;;;;;;4927094;29;20202;-80
2023/02/14 09:26:15;;;;;;;13.93;8.98;;;7.20;99.90;;;;;;4926238;29;20204;-80
2023/02/14 09:28:43;;;;;;;13.63;8.15;;;7.40;99.90;;;;;;4920645;29;20257;-80
2023/02/14 09:31:19;;;;;;;15.02;9.18;;;9.30;99.90;;;;;;4924643;29;20208;-80
2023/02/14 09:33:47;;;;;;;16.05;9.82;;;7.30;99.90;;;;;;4926128;29;20291;-80
2023/02/14 09:36:14;;;;;;;11.23;8.93;;;9.20;99.90;;;;;;4923786;29;20604;-80
2023/02/14 09:38:41;;;;;;;11.77;8.23;;;7.70;99.90;;;;;;4926318;29;20386;-79
2023/02/14 09:41:18;;;;;;;13.27;7.82;;;8.10;99.90;;;;;;4922608;29;20419;-80
2023/02/14 09:44:03;;;;;;;13.35;9.23;;;7.40;99.90;;;;;;4920479;29;20203;-79
2023/02/14 09:46:34;;;;;;;12.18;8.45;;;7.40;99.90;;;;;;4925990;29;20216;-81
2023/02/14 09:49:02;;;;;;;11.82;9.02;;;7.50;99.90;;;;;;4926492;29;20204;-78
2023/02/14 09:51:30;;;;;;;12.90;9.05;;;9.40;99.90;;;;;;4926549;29;20268;-81
2023/02/14 09:54:11;;;;;;;13.38;7.45;;;9.50;99.90;;;;;;4919918;29;20267;-80
2023/02/14 09:56:57;;;;;;;11.45;7.95;;;8.20;99.90;;;;;;4921691;29;20321;-79
2023/02/14 09:59:46;;;;;;;12.23;9.55;;;7.70;99.90;;;;;;4913056;29;20217;-80
2023/02/14 10:02:32;;;;;;;12.38;7.68;;;8.80;99.90;;;;;;4923756;29;20205;-80
2023/02/14 10:05:27;;;;;;;10.38;8.25;;;8.00;99.90;;;;;;4914982;29;20561;-80
2023/02/14 10:07:54;;;;;;;12.02;8.50;;;;;;;;;;4922979;29;20201;-80
2023/02/14 10:10:27;;;;;;;8.82;6.90;;;7.30;99.90;;;;;;4925609;29;20200;-81
2023/02/14 10:13:11;;;;;;;13.63;7.45;;;7.80;99.90;;;;;;4914089;29;20508;-81
2023/02/14 10:15:44;;;;;;;11.52;7.20;;;7.90;99.90;;;;;;4925955;29;20434;-81
2023/02/14 10:18:23;;;;;;;11.35;7.65;;;8.10;99.90;;;;;;4920584;29;20202;-80
2023/02/14 10:20:57;;;;;;;7.72;6.90;;;7.80;99.90;;;;;;4916946;29;20207;-81
2023/02/14 10:23:33;;;;;;;12.77;6.72;;;8.10;99.90;;;;;;4913579;29;20269;-81
2023/02/14 10:26:07;;;;;;;9.27;7.03;;;8.30;99.90;;;;;;4930041;29;20210;-81
2023/02/14 10:28:39;;;;;;;8.80;5.55;;;10.00;99.90;;;;;;4923619;29;20208;-81
2023/02/14 10:31:25;;;;;;;7.55;6.13;;;9.30;99.90;;;;;;4926851;29;20487;-80
2023/02/14 10:33:54;;;;;;;8.05;7.25;;;7.70;99.90;;;;;;4915192;29;20266;-79
2023/02/14 10:36:29;;;;;;;12.43;7.50;;;8.00;99.90;;;;;;4916138;29;20233;-80
2023/02/14 10:39:16;;;;;;;10.07;7.68;;;7.90;99.90;;;;;;4917771;29;20224;-80
2023/02/14 10:41:55;;;;;;;10.38;7.70;;;8.00;99.90;;;;;;4922651;29;20304;-82
2023/02/14 10:44:25;;;;;;;11.32;7.18;;;10.50;99.90;;;;;;4919431;29;20215;-81
2023/02/14 10:47:07;;;;;;;12.73;9.43;;;9.10;99.90;;;;;;4922391;29;20213;-81
2023/02/14 10:49:38;;;;;;;10.90;8.25;;;9.60;99.90;;;;;;4922167;29;20213;-79
2023/02/14 10:52:25;;;;;;;13.50;7.68;;;9.90;99.90;;;;;;4925533;29;20206;-80
2023/02/14 10:54:56;;;;;;;12.80;8.70;;;8.50;99.90;;;;;;4910091;29;20263;-80
2023/02/14 10:57:40;;;;;;;9.55;8.40;;;9.70;99.90;;;;;;4917546;29;20217;-79
2023/02/14 11:00:21;;;;;;;9.10;6.55;;;8.60;99.90;;;;;;4931502;29;20203;-80
2023/02/14 11:02:52;;;;;;;16.05;7.40;;;8.50;99.90;;;;;;4930439;29;20211;-79
2023/02/14 11:05:30;;;;;;;9.63;7.53;;;8.80;99.90;;;;;;4929088;29;20521;-81
2023/02/14 11:07:58;;;;;;;12.93;7.25;;;8.50;99.90;;;;;;4931228;29;20215;-77
2023/02/14 11:10:33;;;;;;;8.43;6.22;;;8.60;99.90;;;;;;4928623;29;20221;-80
2023/02/14 11:13:00;;;;;;;10.07;6.28;;;9.60;99.90;;;;;;4926310;29;20215;-81
2023/02/14 11:15:34;;;;;;;6.07;5.45;;;8.90;99.90;;;;;;4925668;29;20237;-81
2023/02/14 11:18:17;;;;;;;11.73;6.85;;;8.80;99.90;;;;;;4929742;29;20247;-79
2023/02/14 11:21:03;;;;;;;10.75;7.35;;;9.10;99.90;;;;;;4928652;29;20222;-79
2023/02/14 11:23:41;;;;;;;9.27;6.47;;;8.90;99.90;;;;;;4929412;29;20214;-79
2023/02/14 11:26:21;;;;;;;8.77;6.55;;;8.80;99.90;;;;;;4929115;29;20209;-81
2023/02/14 11:29:00;;;;;;;8.52;6.95;;;8.90;99.90;;;;;;4920216;29;20216;-80
2023/02/14 11:31:33;;;;;;;6.10;5.32;;;8.60;99.90;;;;;;4940565;29;20199;-80
2023/02/14 11:34:02;;;;;;;9.68;7.32;;;8.80;99.90;;;;;;4914978;29;20312;-80
2023/02/14 11:36:37;;;;;;;11.13;6.60;;;8.80;99.90;;;;;;4928576;29;20547;-80
2023/02/14 11:39:29;;;;;;;11.00;6.07;;;10.00;99.90;;;;;;4917145;29;20219;-78
2023/02/14 11:42:00;;;;;;;5.72;5.22;;;9.00;99.90;;;;;;4928451;29;20206;-80
2023/02/14 11:44:29;;;;;;;5.75;4.68;;;10.30;99.90;;;;;;4922504;29;20212;-78
2023/02/14 11:47:14;;;;;;;8.55;5.72;;;9.10;99.90;;;;;;4919829;29;20219;-80
2023/02/14 11:49:53;;;;;;;7.88;6.18;;;11.30;99.90;;;;;;4924243;29;20208;-80
2023/02/14 11:52:25;;;;;;;6.57;5.85;;;8.80;99.90;;;;;;4921066;29;20424;-80
2023/02/14 11:54:53;;;;;;;14.30;8.93;;;8.90;99.90;;;;;;4922679;29;20258;-80
2023/02/14 11:57:33;;;;;;;5.47;4.97;;;8.90;99.90;;;;;;4919735;29;20226;-82
2023/02/14 12:00:13;;;;;;;7.32;4.93;;;9.00;99.90;;;;;;4920236;29;20222;-79
2023/02/14 12:02:43;;;;;;;9.82;5.45;;;8.90;99.90;;;;;;4929307;29;20241;-80
2023/02/14 12:05:25;;;;;;;4.90;4.40;;;10.50;99.90;;;;;;4911931;29;20202;-79
2023/02/14 12:07:55;;;;;;;32.70;5.68;;;8.90;99.90;;;;;;4928431;29;20503;-81
2023/02/14 12:10:26;;;;;;;6.90;4.70;;;8.90;99.90;;;;;;4922367;29;20346;-79
2023/02/14 12:13:08;;;;;;;8.05;5.05;;;8.90;99.90;;;;;;4924315;29;20213;-80
2023/02/14 12:15:41;;;;;;;6.13;5.10;;;9.00;99.90;;;;;;4918475;29;20208;-81
2023/02/14 12:18:32;;;;;;;7.05;4.97;;;9.30;99.90;;;;;;4922056;29;20231;-81
2023/02/14 12:21:05;;;;;;;5.13;4.28;;;9.10;99.90;;;;;;4924787;29;20244;-82
2023/02/14 12:24:04;;;;;;;8.90;5.28;;;9.20;99.90;;;;;;4923252;29;20219;-79
2023/02/14 12:26:39;;;;;;;15.82;5.05;;;9.00;99.90;;;;;;4928850;29;20258;-80
2023/02/14 12:29:51;;;;;;;5.70;5.15;;;9.40;99.90;;;;;;4915341;29;20251;-79
2023/02/14 12:32:20;;;;;;;7.22;5.82;;;9.60;99.90;;;;;;4881715;29;20208;-81
2023/02/14 12:34:48;;;;;;;9.32;4.03;;;9.40;99.90;;;;;;4864462;29;20245;-80
2023/02/14 12:37:26;;;;;;;4.15;3.75;;;9.40;99.90;;;;;;4899061;29;20243;-80
2023/02/14 12:40:10;;;;;;;5.60;5.07;;;9.60;99.90;;;;;;4926633;29;20209;-81
2023/02/14 12:43:16;;;;;;;8.98;5.00;;;9.60;99.90;;;;;;4932070;29;20192;-80
2023/02/14 12:46:16;;;;;;;6.00;4.63;;;10.20;99.90;;;;;;4931669;29;20552;-80
2023/02/14 12:49:28;;;;;;;5.30;4.80;;;9.50;99.90;;;;;;4927775;29;20215;-79
2023/02/14 12:52:16;;;;;;;7.60;4.90;;;9.20;99.90;;;;;;4932599;29;20211;-80
2023/02/14 12:54:44;;;;;;;4.78;4.22;;;;;;;;;;4929855;29;20249;-81
2023/02/14 12:57:25;;;;;;;5.75;4.22;;;8.90;99.90;;;;;;4922612;29;20228;-80
2023/02/14 13:00:02;;;;;;;5.45;4.95;;;9.10;99.90;;;;;;4925916;29;20208;-80
2023/02/14 13:02:41;;;;;;;6.45;5.03;;;8.90;99.90;;;;;;4928037;29;20207;-81
2023/02/14 13:05:37;;;;;;;13.07;4.07;;;8.90;99.90;;;;;;4927817;29;20588;-80
2023/02/14 13:08:10;;;;;;;5.85;5.00;;;9.00;99.90;;;;;;4919321;29;20211;-79
2023/02/14 13:10:53;;;;;;;5.03;4.50;;;9.10;99.90;;;;;;4922981;29;20279;-80
2023/02/14 13:13:55;;;;;;;6.75;5.63;;;8.80;99.90;;;;;;4927215;29;20208;-80
2023/02/14 13:16:39;;;;;;;5.82;4.13;;;8.80;99.90;;;;;;4927874;29;20337;-81
2023/02/14 13:19:27;;;;;;;6.97;4.40;;;9.00;99.90;;;;;;4915329;29;20214;-80
2023/02/14 13:21:57;;;;;;;6.35;4.88;;;8.80;99.90;;;;;;4926154;29;20219;-79
2023/02/14 13:24:29;;;;;;;5.35;4.80;;;8.50;99.90;;;;;;4926221;29;20209;-79
2023/02/14 13:27:01;;;;;;;5.47;4.95;;;8.50;99.90;;;;;;4927012;29;20236;-81
2023/02/14 13:29:44;;;;;;;10.43;5.70;;;8.50;99.90;;;;;;4919354;29;20267;-79
2023/02/14 13:32:16;;;;;;;6.15;4.65;;;8.30;99.90;;;;;;4915137;29;20239;-79